Strona główna
METAR-TAF:

METAR-TAF

Lotnisko :

Baza lotnicza

Ismailia, Egipt

Szerokość geograficzna: 30-35-54N, Długość geograficzna: 032-14-13E, wysokość: 13 m

Aktualna obserwacja pogody

Raport powstał 1 godzina i 28 minut temu, godzina 05:00 UTC
Wiatr 8 kt od południowo-południowy zachód
Temperatura 11°C
Wilgotność 82%
Ciśnienie 1014 hPa
Widzialność: 4000 m
Przerywane chmury na wysokości 2500 ft
zamglenie

METAR: HEIS 130500Z 20008KT 4000 BR BKN025 11/08 Q1014

czas: 08:28 (06:28 UTC)


TAF: brakujący

Obserwacja i prognoza pogody dla ponad 4000 lotnisk (raport METAR i TAF).

Dostępne stacje oznaczono żółtymi i czerwonymi punktami na mapie.

Najedź kursorem aby zobaczyć nazwę stacji.

Kliknij aby zobaczyć obserwacje i prognozy pogody.

Aby zmienić mapę: kliknij na zielony przycisk z czarnym krzyżykiem, aby powiększyć; na zielony przycisk z myślnikiem, aby pomniejszyć; na zielone strzałki, aby przejść do map sąsiednich.


METAR-TAF: